Jhelum Weather



Jhelum's Current Weather

Temprature 12.67o clear sky

clear sky

Rain: 0 %

Min Temprature12.67o
Max Temprature12.67o
Humidity59
Wind Speed0.77 m/h
Sun Rise07:05:19
Sun Set17:28:11
Current Time: 23-Jan-2021 19:11:57
Lat/Lon: 32.9331, 73.7264




Jhelum's Geo Location



Jhelum's Weather Forecast

Time Overall Temp Min Temp Max Temp Humidity Wind Speed Rain
23-Jan-2021 (Sat)
20:00:00 few clouds 14.010 12.300 14.010 56 1.45 m/h 0 %
23:00:00 clear sky 12.060 11.080 12.060 64 3.12 m/h 0 %
24-Jan-2021 (Sun)
02:00:00 few clouds 10.450 10.100 10.450 66 2.98 m/h 0 %
05:00:00 clear sky 9.310 9.260 9.310 64 2.17 m/h 0 %
08:00:00 clear sky 10.010 10.010 10.010 52 3.61 m/h 0 %
11:00:00 clear sky 17.580 17.580 17.580 32 4.56 m/h 0 %
14:00:00 clear sky 21.320 21.320 21.320 27 3.72 m/h 0 %
17:00:00 clear sky 18.330 18.330 18.330 36 3.15 m/h 0 %
20:00:00 clear sky 13.600 13.600 13.600 39 3.46 m/h 0 %
23:00:00 clear sky 11.970 11.970 11.970 41 2.92 m/h 0 %
25-Jan-2021 (Mon)
02:00:00 clear sky 10.900 10.900 10.900 44 3.11 m/h 0 %
05:00:00 clear sky 9.960 9.960 9.960 45 2.99 m/h 0 %
08:00:00 clear sky 10.440 10.440 10.440 45 2.77 m/h 0 %
11:00:00 clear sky 17.820 17.820 17.820 29 2.88 m/h 0 %
14:00:00 clear sky 21.860 21.860 21.860 24 3.12 m/h 0 %
17:00:00 clear sky 18.360 18.360 18.360 33 2.99 m/h 0 %
20:00:00 clear sky 13.630 13.630 13.630 37 2.38 m/h 0 %
23:00:00 clear sky 12.050 12.050 12.050 39 2.28 m/h 0 %
26-Jan-2021 (Tue)
02:00:00 clear sky 10.620 10.620 10.620 44 1.57 m/h 0 %
05:00:00 clear sky 9.750 9.750 9.750 47 1.84 m/h 0 %
08:00:00 clear sky 10.480 10.480 10.480 46 1.46 m/h 0 %
11:00:00 clear sky 17.200 17.200 17.200 30 1.95 m/h 0 %
14:00:00 clear sky 20.360 20.360 20.360 26 1.63 m/h 0 %
17:00:00 clear sky 17.900 17.900 17.900 35 1.59 m/h 0 %
20:00:00 clear sky 13.280 13.280 13.280 38 2.46 m/h 0 %
23:00:00 clear sky 11.790 11.790 11.790 40 2.05 m/h 0 %
27-Jan-2021 (Wed)
02:00:00 clear sky 10.620 10.620 10.620 44 1.85 m/h 0 %
05:00:00 clear sky 9.400 9.400 9.400 48 1.9 m/h 0 %
08:00:00 clear sky 10.080 10.080 10.080 46 1.94 m/h 0 %
11:00:00 scattered clouds 16.870 16.870 16.870 30 2.47 m/h 0 %
14:00:00 broken clouds 20.260 20.260 20.260 25 2.33 m/h 0 %
17:00:00 broken clouds 17.520 17.520 17.520 31 2.42 m/h 0 %
20:00:00 broken clouds 12.760 12.760 12.760 37 2.25 m/h 0 %
23:00:00 broken clouds 11.270 11.270 11.270 40 1.74 m/h 0 %
28-Jan-2021 (Thu)
02:00:00 clear sky 9.950 9.950 9.950 44 2.02 m/h 0 %
05:00:00 clear sky 8.810 8.810 8.810 48 2.04 m/h 0 %
08:00:00 clear sky 9.620 9.620 9.620 46 2.07 m/h 0 %
11:00:00 clear sky 17.110 17.110 17.110 29 2.68 m/h 0 %
14:00:00 clear sky 20.880 20.880 20.880 23 2.75 m/h 0 %
17:00:00 clear sky 17.800 17.800 17.800 29 3.14 m/h 0 %

Famous Cities (60)